MSC Vanessa — HOWD — position and weather

sailwx.info

Track history (hours):
 
Tides and Currents Weather Stations Pressure Air Temp Water Temp Dewpoint Dewpoint Depression Visibility Wind Speed Wind Dir Waves Ship Positions

MSC Vanessa

Last reported at 2015-Apr-28 15:28 UTC. Time now 2015-Apr-28 16:01 UTC.
Position S 23°55' W 046°21'.

Length 300 m; draft 10.3 m.

Type: Ship (hazmat cat A). MMSI: 356946000.

Date/timePositionNaut miles runAvg speedWind from/ knotsBaromVisibWave heightAir tempDewpointWater temp
2015-Apr-28 15:28S 23°55' W 046°21'0 0.0
2015-Apr-28 14:31S 23°55' W 046°21'0 0.0
2015-Apr-28 13:31S 23°55' W 046°21'0 0.0
2015-Apr-28 12:16S 23°55' W 046°21'0 0.0
2015-Apr-28 11:31S 23°55' W 046°21'0 0.0
2015-Apr-28 10:31S 23°55' W 046°21'0 0.0
2015-Apr-28 09:31S 23°55' W 046°21'0 0.0
2015-Apr-28 08:31S 23°55' W 046°21'0 0.0
2015-Apr-28 07:28S 23°55' W 046°21'0 0.1
2015-Apr-28 06:34S 23°55' W 046°21'5 4.5
2015-Apr-28 05:34S 23°58' W 046°18'7 7.2
2015-Apr-28 04:33S 24°04' W 046°22'8 7.7
2015-Apr-28 03:33S 24°11' W 046°18'0 0.1
2015-Apr-28 02:31S 24°11' W 046°19'0 0.0
2015-Apr-28 01:31S 24°11' W 046°19'0 0.0
2015-Apr-28 00:25S 24°11' W 046°19'3 3.6
2015-Apr-27 23:34S 24°12' W 046°22'1414.1
2015-Apr-27 22:33S 24°24' W 046°28'  
2015-Apr-25 14:08S 26°54' W 048°32'1 0.1
2015-Apr-25 01:07S 26°55' W 048°32'  
2015-Apr-21 10:34S 23°35' W 042°17'1716.6
2015-Apr-21 09:33S 23°29' W 042°00'1716.5
2015-Apr-21 08:32S 23°21' W 041°44'3616.0
2015-Apr-21 06:18S 22°56' W 041°16'1216.4
2015-Apr-21 05:34S 22°47' W 041°07'59216.0
2015-Apr-19 16:33S 13°14' W 038°32'1616.0
2015-Apr-19 15:33S 12°58' W 038°33'3 2.9
2015-Apr-19 14:33S 12°58' W 038°30'0 0.0
2015-Apr-19 13:33S 12°58' W 038°30'0 0.0
2015-Apr-19 12:33S 12°58' W 038°30'0 0.0
2015-Apr-19 11:33S 12°58' W 038°30'0 0.0
2015-Apr-19 10:33S 12°58' W 038°30'0 0.0
2015-Apr-19 09:33S 12°58' W 038°30'0 0.0
2015-Apr-19 08:33S 12°58' W 038°30'0 0.0
2015-Apr-19 07:33S 12°58' W 038°30'0 0.0
2015-Apr-19 06:33S 12°58' W 038°30'0 0.0
2015-Apr-19 05:33S 12°58' W 038°30'0 0.0
2015-Apr-19 04:33S 12°58' W 038°30'0 0.0
2015-Apr-19 03:33S 12°58' W 038°30'1 0.8
2015-Apr-19 02:33S 12°57' W 038°31'5 4.7
2015-Apr-19 01:33S 13°01' W 038°34'6 5.6
2015-Apr-19 00:33S 13°06' W 038°34'4 3.7
2015-Apr-18 23:33S 13°09' W 038°31'  
Track history (hours):
 
Tides and Currents Weather Stations Pressure Air Temp Water Temp Dewpoint Dewpoint Depression Visibility Wind Speed Wind Dir Waves Ship Positions

MSC Vanessa

Last reported at 2015-Apr-28 15:28 UTC. Time now 2015-Apr-28 16:01 UTC.
Position S 23°55' W 046°21'.

Length 300 m; draft 10.3 m.

Type: Ship (hazmat cat A). MMSI: 356946000.

Date/timePositionNaut miles runAvg speedWind from/ knotsBaromVisibWave heightAir tempDewpointWater temp
2015-Apr-28 15:28S 23°55' W 046°21'0 0.0
2015-Apr-28 14:31S 23°55' W 046°21'0 0.0
2015-Apr-28 13:31S 23°55' W 046°21'0 0.0
2015-Apr-28 12:16S 23°55' W 046°21'0 0.0
2015-Apr-28 11:31S 23°55' W 046°21'0 0.0
2015-Apr-28 10:31S 23°55' W 046°21'0 0.0
2015-Apr-28 09:31S 23°55' W 046°21'0 0.0
2015-Apr-28 08:31S 23°55' W 046°21'0 0.0
2015-Apr-28 07:28S 23°55' W 046°21'0 0.1
2015-Apr-28 06:34S 23°55' W 046°21'5 4.5
2015-Apr-28 05:34S 23°58' W 046°18'7 7.2
2015-Apr-28 04:33S 24°04' W 046°22'8 7.7
2015-Apr-28 03:33S 24°11' W 046°18'0 0.1
2015-Apr-28 02:31S 24°11' W 046°19'0 0.0
2015-Apr-28 01:31S 24°11' W 046°19'0 0.0
2015-Apr-28 00:25S 24°11' W 046°19'3 3.6
2015-Apr-27 23:34S 24°12' W 046°22'1414.1
2015-Apr-27 22:33S 24°24' W 046°28'  
2015-Apr-25 14:08S 26°54' W 048°32'1 0.1
2015-Apr-25 01:07S 26°55' W 048°32'  
2015-Apr-21 10:34S 23°35' W 042°17'1716.6
2015-Apr-21 09:33S 23°29' W 042°00'1716.5
2015-Apr-21 08:32S 23°21' W 041°44'3616.0
2015-Apr-21 06:18S 22°56' W 041°16'1216.4
2015-Apr-21 05:34S 22°47' W 041°07'59216.0
2015-Apr-19 16:33S 13°14' W 038°32'1616.0
2015-Apr-19 15:33S 12°58' W 038°33'3 2.9
2015-Apr-19 14:33S 12°58' W 038°30'0 0.0
2015-Apr-19 13:33S 12°58' W 038°30'0 0.0
2015-Apr-19 12:33S 12°58' W 038°30'0 0.0
2015-Apr-19 11:33S 12°58' W 038°30'0 0.0
2015-Apr-19 10:33S 12°58' W 038°30'0 0.0
2015-Apr-19 09:33S 12°58' W 038°30'0 0.0
2015-Apr-19 08:33S 12°58' W 038°30'0 0.0
2015-Apr-19 07:33S 12°58' W 038°30'0 0.0
2015-Apr-19 06:33S 12°58' W 038°30'0 0.0
2015-Apr-19 05:33S 12°58' W 038°30'0 0.0
2015-Apr-19 04:33S 12°58' W 038°30'0 0.0
2015-Apr-19 03:33S 12°58' W 038°30'1 0.8
2015-Apr-19 02:33S 12°57' W 038°31'5 4.7
2015-Apr-19 01:33S 13°01' W 038°34'6 5.6
2015-Apr-19 00:33S 13°06' W 038°34'4 3.7
2015-Apr-18 23:33S 13°09' W 038°31'  

Dump ship's entire track history